Time;durP1;ratioP1;P1;durP2;ratioP2;P2;SDS_P1;SDS_P2;PMS_P1;PMS_P2;Temp;Humidity;BMP_temperature;BMP_pressure;BME280_temperature;BME280_humidity;BME280_pressure;Samples;Min_cycle;Max_cycle;Signal;HPM_P1;HPM_P2
2022/09/30 00:01:26;;;;;;;5.15;4.53;;;8.90;99.90;;;;;;5022055;28;20045;-79
2022/09/30 00:03:56;;;;;;;5.43;4.93;;;8.90;99.90;;;;;;5034988;28;20479;-79
2022/09/30 00:06:26;;;;;;;5.82;5.22;;;8.90;99.90;;;;;;5020022;28;20046;-78
2022/09/30 00:08:52;;;;;;;5.60;5.07;;;8.90;99.90;;;;;;5031781;28;20088;-78
2022/09/30 00:11:21;;;;;;;5.82;5.22;;;8.80;99.90;;;;;;5025013;28;20037;-78
2022/09/30 00:13:49;;;;;;;5.28;4.78;;;8.90;99.90;;;;;;5034485;28;20037;-78
2022/09/30 00:16:16;;;;;;;5.60;5.10;;;8.90;99.90;;;;;;5038153;28;20090;-78
2022/09/30 00:18:42;;;;;;;5.35;4.85;;;8.80;99.90;;;;;;5031364;28;20045;-78
2022/09/30 00:21:09;;;;;;;5.25;4.75;;;8.80;99.90;;;;;;5033284;28;20041;-78
2022/09/30 00:23:36;;;;;;;5.00;4.50;;;8.80;99.90;;;;;;5032530;28;20044;-78
2022/09/30 00:26:11;;;;;;;5.90;5.30;;;8.80;99.90;;;;;;5016399;28;20033;-78
2022/09/30 00:28:38;;;;;;;5.50;5.00;;;8.80;99.90;;;;;;5033873;28;20045;-78
2022/09/30 00:31:08;;;;;;;5.70;5.10;;;8.80;99.90;;;;;;5025040;28;20125;-78
2022/09/30 00:33:34;;;;;;;5.70;5.13;;;8.70;99.90;;;;;;5016185;28;20079;-78
2022/09/30 00:36:01;;;;;;;5.25;4.75;;;8.70;99.90;;;;;;5029024;28;20037;-78
2022/09/30 00:38:27;;;;;;;5.00;4.50;;;8.70;99.90;;;;;;5037413;28;20060;-78
2022/09/30 00:40:53;;;;;;;5.30;4.63;;;8.60;99.90;;;;;;5016973;28;20135;-78
2022/09/30 00:43:41;;;;;;;5.75;5.15;;;8.50;99.90;;;;;;5054377;28;20478;-79
2022/09/30 00:46:16;;;;;;;5.22;4.72;;;8.50;99.90;;;;;;5026370;28;20403;-79
2022/09/30 00:48:42;;;;;;;5.28;4.78;;;8.50;99.90;;;;;;5020649;28;20114;-79
2022/09/30 00:51:09;;;;;;;4.85;4.32;;;8.40;99.90;;;;;;5048729;28;20076;-78
2022/09/30 00:53:40;;;;;;;5.03;4.53;;;8.40;99.90;;;;;;5046616;28;20045;-78
2022/09/30 00:56:20;;;;;;;4.80;4.20;;;8.30;99.90;;;;;;5042156;28;20560;-78
2022/09/30 00:59:09;;;;;;;4.78;4.35;;;8.20;99.90;;;;;;5038136;28;20482;-78
2022/09/30 01:01:40;;;;;;;4.97;4.47;;;8.10;99.90;;;;;;5031056;28;20033;-78
2022/09/30 01:04:13;;;;;;;5.15;4.20;;;8.10;99.90;;;;;;5038073;28;20037;-78
2022/09/30 01:06:40;;;;;;;5.65;4.95;;;8.00;99.90;;;;;;5020540;28;20041;-78
2022/09/30 01:09:06;;;;;;;5.07;4.57;;;8.00;99.90;;;;;;5017468;28;20044;-78
2022/09/30 01:11:32;;;;;;;4.93;4.35;;;7.90;99.90;;;;;;5044856;28;20041;-78
2022/09/30 01:14:12;;;;;;;5.32;4.82;;;7.90;99.90;;;;;;5036888;28;20100;-78
2022/09/30 01:16:55;;;;;;;5.10;4.60;;;7.80;99.90;;;;;;5020147;28;20037;-78
2022/09/30 01:19:30;;;;;;;4.95;4.45;;;7.80;99.90;;;;;;5049670;28;20487;-78
2022/09/30 01:22:23;;;;;;;4.65;4.20;;;7.70;99.90;;;;;;5053405;28;20525;-78
2022/09/30 01:25:14;;;;;;;4.40;4.00;;;7.70;99.90;;;;;;5036562;28;20033;-78
2022/09/30 01:28:13;;;;;;;4.57;4.18;;;7.70;99.90;;;;;;5046353;28;20045;-78
2022/09/30 01:30:39;;;;;;;4.18;3.78;;;7.70;99.90;;;;;;5018062;28;20045;-78
2022/09/30 01:33:08;;;;;;;4.35;3.78;;;7.70;99.90;;;;;;5048346;28;20415;-78
2022/09/30 01:35:58;;;;;;;4.00;3.50;;;7.70;99.90;;;;;;5055730;28;20041;-78
2022/09/30 01:38:32;;;;;;;3.85;3.45;;;7.60;99.90;;;;;;5023809;28;20037;-78
2022/09/30 01:41:09;;;;;;;3.75;3.35;;;7.60;99.90;;;;;;5046678;28;20041;-78
2022/09/30 01:43:57;;;;;;;3.78;3.35;;;7.50;99.90;;;;;;5036197;28;20490;-78
2022/09/30 01:46:52;;;;;;;3.60;3.30;;;7.50;99.90;;;;;;5041907;28;20041;-78
2022/09/30 01:49:48;;;;;;;3.80;3.42;;;7.40;99.90;;;;;;5034640;28;20136;-78
2022/09/30 01:52:32;;;;;;;3.50;3.20;;;7.40;99.90;;;;;;5029267;28;20055;-78
2022/09/30 01:55:00;;;;;;;3.15;2.85;;;7.30;99.90;;;;;;5032730;28;20036;-78
2022/09/30 01:57:46;;;;;;;2.85;2.60;;;7.30;99.90;;;;;;5018927;28;20124;-78
2022/09/30 02:00:13;;;;;;;3.35;3.05;;;7.20;99.90;;;;;;5021629;28;20076;-78
2022/09/30 02:02:59;;;;;;;3.38;2.95;;;7.20;99.90;;;;;;5035432;28;20044;-78
2022/09/30 02:05:33;;;;;;;3.70;3.30;;;7.10;99.90;;;;;;5046448;28;20490;-78
2022/09/30 02:08:08;;;;;;;3.88;3.47;;;7.10;99.90;;;;;;5040381;28;20507;-78
2022/09/30 02:10:44;;;;;;;3.95;3.55;;;7.00;99.90;;;;;;5018229;28;20232;-78
2022/09/30 02:13:10;;;;;;;3.20;2.80;;;7.00;99.90;;;;;;5018788;28;20044;-78
2022/09/30 02:15:41;;;;;;;2.85;2.65;;;7.00;99.90;;;;;;5042572;28;20036;-78
2022/09/30 02:18:19;;;;;;;2.70;2.50;;;6.90;99.90;;;;;;5023582;28;20495;-78
2022/09/30 02:20:50;;;;;;;2.67;2.47;;;6.90;99.90;;;;;;5038997;28;20044;-78
2022/09/30 02:23:25;;;;;;;3.33;3.00;;;6.90;99.90;;;;;;5031236;28;20592;-78
2022/09/30 02:25:58;;;;;;;3.78;3.38;;;6.80;99.90;;;;;;5039744;28;20046;-78
2022/09/30 02:28:28;;;;;;;4.25;3.80;;;6.80;99.90;;;;;;5022932;28;20041;-78
2022/09/30 02:30:58;;;;;;;4.82;4.32;;;6.80;99.90;;;;;;5028316;28;20553;-78
2022/09/30 02:33:45;;;;;;;4.07;3.58;;;6.70;99.90;;;;;;5031036;28;20077;-78
2022/09/30 02:36:27;;;;;;;4.80;4.25;;;6.70;99.90;;;;;;5016892;28;20036;-78
2022/09/30 02:39:14;;;;;;;3.42;3.10;;;6.70;99.90;;;;;;5062938;28;20040;-78
2022/09/30 02:41:46;;;;;;;3.30;3.00;;;6.70;99.90;;;;;;5032289;28;20048;-78
2022/09/30 02:44:13;;;;;;;3.83;3.42;;;6.70;99.90;;;;;;5032561;28;20402;-78
2022/09/30 02:47:07;;;;;;;3.65;3.35;;;6.70;99.90;;;;;;5062847;28;20059;-78
2022/09/30 02:49:39;;;;;;;4.22;3.83;;;6.60;99.90;;;;;;5030512;28;20395;-78
2022/09/30 02:52:21;;;;;;;3.72;3.42;;;6.60;99.90;;;;;;5014570;28;20049;-78
2022/09/30 02:55:02;;;;;;;4.85;4.18;;;6.50;99.90;;;;;;5054559;28;20097;-78
2022/09/30 02:57:53;;;;;;;4.80;4.13;;;6.50;99.90;;;;;;5054019;28;20037;-78
2022/09/30 03:00:19;;;;;;;4.03;3.63;;;6.50;99.90;;;;;;5029439;28;20051;-78
2022/09/30 03:02:44;;;;;;;4.10;3.70;;;6.40;99.90;;;;;;5042526;28;20550;-78
2022/09/30 03:05:10;;;;;;;4.13;3.72;;;6.40;99.90;;;;;;5034695;28;20098;-78
2022/09/30 03:07:37;;;;;;;4.45;4.03;;;6.40;99.90;;;;;;5033026;28;20484;-78
2022/09/30 03:10:16;;;;;;;4.25;3.72;;;6.40;99.90;;;;;;5012869;28;20480;-78
2022/09/30 03:13:03;;;;;;;3.88;3.47;;;6.30;99.90;;;;;;5023643;28;20037;-78
2022/09/30 03:15:56;;;;;;;4.30;3.83;;;6.30;99.90;;;;;;5034511;28;20499;-78
2022/09/30 03:18:40;;;;;;;5.55;5.03;;;6.20;99.90;;;;;;5031937;28;20116;-78
2022/09/30 03:21:23;;;;;;;6.00;5.40;;;6.20;99.90;;;;;;5026451;28;20037;-78
2022/09/30 03:24:06;;;;;;;7.00;5.78;;;6.20;99.90;;;;;;5040842;28;20403;-78
2022/09/30 03:27:10;;;;;;;6.35;5.70;;;6.30;99.90;;;;;;5033989;28;20491;-78
2022/09/30 03:29:42;;;;;;;6.05;5.45;;;6.20;99.90;;;;;;5016113;28;20079;-78
2022/09/30 03:32:45;;;;;;;5.40;4.80;;;6.30;99.90;;;;;;5022680;28;20128;-78
2022/09/30 03:35:42;;;;;;;5.05;4.55;;;6.30;99.90;;;;;;5030296;28;20062;-78
2022/09/30 03:38:22;;;;;;;4.53;4.07;;;6.20;99.90;;;;;;5053866;28;20041;-78
2022/09/30 03:41:02;;;;;;;4.75;4.00;;;6.20;99.90;;;;;;5054764;28;20064;-78
2022/09/30 03:43:42;;;;;;;4.00;3.60;;;6.20;99.90;;;;;;5038522;28;20539;-78
2022/09/30 03:46:43;;;;;;;4.13;3.72;;;6.20;99.90;;;;;;5010250;28;20049;-78
2022/09/30 03:49:13;;;;;;;3.70;3.25;;;6.10;99.90;;;;;;5010702;28;20057;-78
2022/09/30 03:51:40;;;;;;;3.65;3.35;;;6.10;99.90;;;;;;5040505;28;20040;-78
2022/09/30 03:54:10;;;;;;;4.25;3.83;;;6.00;99.90;;;;;;5045970;28;20509;-78
2022/09/30 03:56:41;;;;;;;4.05;3.58;;;6.00;99.90;;;;;;5041429;28;20044;-78
2022/09/30 03:59:22;;;;;;;4.40;3.90;;;6.00;99.90;;;;;;5017220;28;20060;-78
2022/09/30 04:01:47;;;;;;;4.22;3.78;;;5.90;99.90;;;;;;5026076;28;20099;-78
2022/09/30 04:04:13;;;;;;;3.90;3.50;;;5.90;99.90;;;;;;5041176;28;20045;-78
2022/09/30 04:06:38;;;;;;;3.90;3.50;;;5.80;99.90;;;;;;5020387;28;20351;-78
2022/09/30 04:09:04;;;;;;;4.15;3.75;;;5.80;99.90;;;;;;5040690;28;20044;-78
2022/09/30 04:11:30;;;;;;;3.63;3.30;;;5.70;99.90;;;;;;5049200;28;20045;-78
2022/09/30 04:13:55;;;;;;;4.40;3.28;;;5.70;99.90;;;;;;5025861;28;20167;-78
2022/09/30 04:16:21;;;;;;;3.40;3.10;;;5.70;99.90;;;;;;5017995;28;20127;-78
2022/09/30 04:18:46;;;;;;;3.65;3.20;;;5.60;99.90;;;;;;5066700;28;20071;-78
2022/09/30 04:21:13;;;;;;;4.13;3.72;;;5.60;99.90;;;;;;5057471;28;20045;-78
2022/09/30 04:23:40;;;;;;;4.32;3.78;;;5.50;99.90;;;;;;5042472;22;20186;-78
2022/09/30 04:26:09;;;;;;;4.20;3.75;;;5.50;99.90;;;;;;5019417;28;20068;-78
2022/09/30 04:28:34;;;;;;;3.47;3.17;;;5.50;99.90;;;;;;5036997;28;20037;-78
2022/09/30 04:31:03;;;;;;;3.25;2.95;;;5.50;99.90;;;;;;5037130;28;20198;-78
2022/09/30 04:33:28;;;;;;;3.58;3.28;;;5.50;99.90;;;;;;5026866;28;20116;-78
2022/09/30 04:35:55;;;;;;;3.55;3.25;;;5.40;99.90;;;;;;4999338;28;20053;-78
2022/09/30 04:38:23;;;;;;;3.97;3.40;;;5.40;99.90;;;;;;5017379;28;20136;-78
2022/09/30 04:40:53;;;;;;;3.22;2.92;;;5.40;99.90;;;;;;5000479;28;20495;-78
2022/09/30 04:43:22;;;;;;;3.40;3.10;;;5.30;99.90;;;;;;5019130;28;20042;-78
2022/09/30 04:45:49;;;;;;;3.60;3.20;;;5.30;99.90;;;;;;5016665;28;20037;-78
2022/09/30 04:48:15;;;;;;;3.25;2.95;;;5.20;99.90;;;;;;5001697;28;20051;-78
2022/09/30 04:50:41;;;;;;;3.28;2.92;;;5.20;99.90;;;;;;5001829;28;20037;-79
2022/09/30 04:53:07;;;;;;;3.70;3.40;;;5.20;99.90;;;;;;5018188;28;20104;-79
2022/09/30 04:55:33;;;;;;;3.63;3.03;;;5.20;99.90;;;;;;5000118;28;20044;-78
2022/09/30 04:57:59;;;;;;;3.20;2.90;;;5.20;99.90;;;;;;5001217;28;20033;-78
2022/09/30 05:00:24;;;;;;;3.40;3.03;;;5.10;99.90;;;;;;5016940;28;20041;-78
2022/09/30 05:02:51;;;;;;;3.72;3.28;;;5.10;99.90;;;;;;4999588;28;20033;-79
2022/09/30 05:05:16;;;;;;;3.97;3.30;;;5.10;99.90;;;;;;5016532;28;20041;-79
2022/09/30 05:07:42;;;;;;;3.50;3.17;;;5.10;99.90;;;;;;4999252;28;20418;-78
2022/09/30 05:10:10;;;;;;;3.40;3.10;;;5.00;99.90;;;;;;5000601;28;20411;-78
2022/09/30 05:12:42;;;;;;;3.25;2.95;;;5.00;99.90;;;;;;5015795;28;20088;-78
2022/09/30 05:15:08;;;;;;;3.13;2.83;;;5.00;99.90;;;;;;5008248;28;20029;-78
2022/09/30 05:17:34;;;;;;;3.70;2.92;;;4.90;99.90;;;;;;5015296;28;20136;-78
2022/09/30 05:20:00;;;;;;;3.70;3.10;;;4.90;99.90;;;;;;5033136;28;20526;-78
2022/09/30 05:22:27;;;;;;;3.75;3.35;;;4.90;99.90;;;;;;5015742;28;20069;-78
2022/09/30 05:24:54;;;;;;;3.33;3.03;;;4.90;99.90;;;;;;5017321;28;20041;-78
2022/09/30 05:27:21;;;;;;;3.30;3.00;;;4.90;99.90;;;;;;4999899;28;20049;-78
2022/09/30 05:29:46;;;;;;;4.35;3.95;;;4.80;99.90;;;;;;5010797;28;20041;-78
2022/09/30 05:32:12;;;;;;;4.60;3.92;;;4.80;99.90;;;;;;4999811;28;20052;-78
2022/09/30 05:34:38;;;;;;;4.72;4.22;;;4.80;99.90;;;;;;4999458;28;20392;-78
2022/09/30 05:37:04;;;;;;;4.38;3.97;;;4.80;99.90;;;;;;5016024;28;20062;-78
2022/09/30 05:39:30;;;;;;;5.25;4.53;;;4.90;99.90;;;;;;4995247;28;20103;-78
2022/09/30 05:41:56;;;;;;;4.53;3.97;;;4.90;99.90;;;;;;5013609;28;20041;-78
2022/09/30 05:44:22;;;;;;;4.50;4.10;;;4.90;99.90;;;;;;4999734;28;20389;-78
2022/09/30 05:46:48;;;;;;;4.18;3.50;;;4.90;99.90;;;;;;5012796;28;20061;-78
2022/09/30 05:49:13;;;;;;;5.10;4.60;;;4.90;99.90;;;;;;5007357;28;20434;-78
2022/09/30 05:51:40;;;;;;;4.70;4.20;;;4.90;99.90;;;;;;4998522;28;20043;-78
2022/09/30 05:54:06;;;;;;;4.38;3.97;;;5.00;99.90;;;;;;5015294;28;20549;-78
2022/09/30 05:56:33;;;;;;;4.03;3.63;;;5.00;99.90;;;;;;5003908;28;20044;-79
2022/09/30 05:58:59;;;;;;;4.47;3.65;;;4.90;99.90;;;;;;4999619;28;20080;-79
2022/09/30 06:01:25;;;;;;;3.65;3.35;;;4.90;99.90;;;;;;4998877;28;20041;-79
2022/09/30 06:03:51;;;;;;;3.92;3.53;;;4.90;99.90;;;;;;5014472;28;20041;-79
2022/09/30 06:06:17;;;;;;;4.60;4.07;;;4.90;99.90;;;;;;5006830;28;20121;-76
2022/09/30 06:08:43;;;;;;;4.88;4.30;;;4.90;99.90;;;;;;5020585;28;20518;-79
2022/09/30 06:11:15;;;;;;;4.93;4.10;;;4.90;99.90;;;;;;5016840;28;20076;-78
2022/09/30 06:13:41;;;;;;;6.05;4.88;;;5.00;99.90;;;;;;4995026;28;20119;-78
2022/09/30 06:16:08;;;;;;;5.60;4.80;;;5.00;99.90;;;;;;5015106;28;20502;-78
2022/09/30 06:18:34;;;;;;;5.72;5.07;;;5.10;99.90;;;;;;5014725;28;20032;-78
2022/09/30 06:21:02;;;;;;;5.50;4.90;;;5.10;99.90;;;;;;5015613;28;20037;-76
2022/09/30 06:23:30;;;;;;;5.93;4.47;;;5.20;99.90;;;;;;4995714;28;20044;-79
2022/09/30 06:25:57;;;;;;;5.72;4.70;;;5.20;99.90;;;;;;5005699;28;20987;-79
2022/09/30 06:28:23;;;;;;;6.65;5.20;;;5.20;99.90;;;;;;4999161;28;20124;-79
2022/09/30 06:30:52;;;;;;;5.13;4.63;;;5.40;99.90;;;;;;4999055;28;20041;-79
2022/09/30 06:33:20;;;;;;;6.55;5.40;;;5.40;99.90;;;;;;4999990;28;20056;-79
2022/09/30 06:35:46;;;;;;;5.63;4.70;;;5.50;99.90;;;;;;4999757;28;20091;-79
2022/09/30 06:38:14;;;;;;;5.97;4.95;;;5.50;99.90;;;;;;5015305;28;20033;-79
2022/09/30 06:40:41;;;;;;;6.53;4.85;;;5.60;99.90;;;;;;5016693;28;20458;-79
2022/09/30 06:43:07;;;;;;;6.10;5.20;;;5.60;99.90;;;;;;5000435;28;20042;-79
2022/09/30 06:45:35;;;;;;;7.45;5.88;;;5.70;99.90;;;;;;5016359;28;20096;-79
2022/09/30 06:48:02;;;;;;;7.65;6.45;;;5.70;99.90;;;;;;5015602;28;20037;-79
2022/09/30 06:50:29;;;;;;;7.38;5.80;;;5.70;99.90;;;;;;5015493;28;20026;-79
2022/09/30 06:53:05;;;;;;;8.18;6.00;;;5.80;99.90;;;;;;5015533;28;20052;-79
2022/09/30 06:55:31;;;;;;;6.25;5.57;;;5.80;99.90;;;;;;5015125;28;20095;-79
2022/09/30 06:57:57;;;;;;;6.85;5.55;;;5.80;99.90;;;;;;5010452;28;20392;-79
2022/09/30 07:00:24;;;;;;;5.90;5.15;;;5.90;99.90;;;;;;5011213;28;20034;-78
2022/09/30 07:02:49;;;;;;;6.20;5.25;;;5.90;99.90;;;;;;5016402;28;20069;-79
2022/09/30 07:05:16;;;;;;;6.22;5.03;;;6.00;99.90;;;;;;5000141;28;20065;-79
2022/09/30 07:07:42;;;;;;;6.97;5.28;;;6.00;99.90;;;;;;4998752;28;20491;-78
2022/09/30 07:10:09;;;;;;;6.28;5.53;;;6.00;99.90;;;;;;5013680;28;20037;-78
2022/09/30 07:12:35;;;;;;;6.20;5.22;;;6.10;99.90;;;;;;5016289;28;20399;-78
2022/09/30 07:15:02;;;;;;;6.30;5.18;;;6.10;99.90;;;;;;5013790;28;20124;-78
2022/09/30 07:17:28;;;;;;;6.75;5.70;;;6.20;99.90;;;;;;4998182;28;20077;-78
2022/09/30 07:19:54;;;;;;;6.65;5.38;;;6.20;99.90;;;;;;4997665;28;20092;-78
2022/09/30 07:22:27;;;;;;;6.85;5.47;;;6.30;99.90;;;;;;5010503;28;20045;-78
2022/09/30 07:24:54;;;;;;;7.22;5.38;;;6.30;99.90;;;;;;5000351;28;20044;-78
2022/09/30 07:27:20;;;;;;;7.43;5.78;;;6.40;99.90;;;;;;4999688;28;20095;-78
2022/09/30 07:29:46;;;;;;;8.43;6.03;;;6.50;99.90;;;;;;5000051;28;20045;-78
2022/09/30 07:32:13;;;;;;;7.28;5.78;;;6.60;99.90;;;;;;4999708;28;20037;-78
2022/09/30 07:34:42;;;;;;;8.07;6.03;;;6.70;99.90;;;;;;5014469;28;20041;-77
2022/09/30 07:37:10;;;;;;;9.07;6.35;;;6.80;99.90;;;;;;5016358;28;20072;-78
2022/09/30 07:39:36;;;;;;;10.02;6.18;;;6.90;99.90;;;;;;5017544;28;20042;-78
2022/09/30 07:42:03;;;;;;;9.05;6.18;;;7.00;99.90;;;;;;5016577;28;20033;-78
2022/09/30 07:44:29;;;;;;;10.00;7.28;;;7.10;99.90;;;;;;5016146;28;20045;-78
2022/09/30 07:46:55;;;;;;;8.25;6.70;;;7.20;99.90;;;;;;5016746;28;20454;-78
2022/09/30 07:49:24;;;;;;;9.68;6.90;;;7.30;99.90;;;;;;4999795;28;20044;-78
2022/09/30 07:51:52;;;;;;;10.25;7.00;;;7.40;99.90;;;;;;4997576;28;20041;-78
2022/09/30 07:54:23;;;;;;;9.82;7.07;;;7.50;99.90;;;;;;5028541;28;20069;-78
2022/09/30 07:56:50;;;;;;;9.52;7.25;;;7.60;99.90;;;;;;5026775;28;20038;-78
2022/09/30 07:59:17;;;;;;;12.45;8.27;;;7.70;99.90;;;;;;5022020;28;20029;-80
2022/09/30 08:01:43;;;;;;;12.52;8.15;;;7.80;99.90;;;;;;5008528;28;20061;-79
2022/09/30 08:04:11;;;;;;;12.10;8.32;;;7.90;99.90;;;;;;5007148;28;20033;-80
2022/09/30 08:06:44;;;;;;;12.88;8.27;;;8.00;99.90;;;;;;5010851;28;20045;-79
2022/09/30 08:09:10;;;;;;;12.63;8.27;;;8.10;99.90;;;;;;5028334;28;20037;-79
2022/09/30 08:11:37;;;;;;;13.02;8.10;;;8.20;99.90;;;;;;5027886;28;20125;-78
2022/09/30 08:14:03;;;;;;;13.93;8.30;;;8.30;99.90;;;;;;5023807;28;20034;-77
2022/09/30 08:16:29;;;;;;;13.95;9.10;;;8.40;99.90;;;;;;5005423;28;20049;-79
2022/09/30 08:19:00;;;;;;;12.65;8.60;;;8.50;99.90;;;;;;5026163;28;20100;-78
2022/09/30 08:21:26;;;;;;;11.68;8.25;;;8.60;99.90;;;;;;5027270;28;20049;-78
2022/09/30 08:23:52;;;;;;;13.90;9.45;;;8.70;99.90;;;;;;5030994;28;20048;-79
2022/09/30 08:26:18;;;;;;;13.85;9.27;;;8.80;99.90;;;;;;5022124;28;20042;-79
2022/09/30 08:28:47;;;;;;;12.90;8.68;;;8.90;99.90;;;;;;5010521;28;20045;-79
2022/09/30 08:31:14;;;;;;;13.23;9.25;;;9.00;99.90;;;;;;5022421;28;20458;-77
2022/09/30 08:33:40;;;;;;;14.38;9.50;;;9.10;99.90;;;;;;5006021;28;20153;-79
2022/09/30 08:36:09;;;;;;;12.50;9.05;;;9.20;99.90;;;;;;5005123;28;20026;-79
2022/09/30 08:38:35;;;;;;;13.45;8.82;;;9.30;99.90;;;;;;5001294;28;20045;-79
2022/09/30 08:41:25;;;;;;;13.77;9.20;;;9.50;99.90;;;;;;4998066;28;20450;-79
2022/09/30 08:44:07;;;;;;;13.82;9.20;;;9.60;99.90;;;;;;5015212;28;20180;-78
2022/09/30 08:46:59;;;;;;;14.30;9.82;;;9.70;99.90;;;;;;5010627;28;20049;-79
2022/09/30 08:49:38;;;;;;;14.82;10.20;;;9.80;99.90;;;;;;4996686;28;20049;-80
2022/09/30 08:52:13;;;;;;;15.18;9.65;;;10.00;99.90;;;;;;5019268;28;20598;-80
2022/09/30 08:54:45;;;;;;;14.43;10.57;;;10.10;99.90;;;;;;5002765;28;20037;-81
2022/09/30 08:57:12;;;;;;;12.00;9.85;;;10.30;99.90;;;;;;4999687;28;20412;-80
2022/09/30 08:59:43;;;;;;;15.65;10.57;;;10.60;99.90;;;;;;5016383;28;20044;-81
2022/09/30 09:02:17;;;;;;;12.98;10.60;;;10.90;99.90;;;;;;5003409;28;20521;-80
2022/09/30 09:04:44;;;;;;;11.43;9.63;;;11.30;99.90;;;;;;5019861;28;20033;-83
2022/09/30 09:07:44;;;;;;;12.70;9.70;;;11.60;99.90;;;;;;5017749;28;20037;-81
2022/09/30 09:10:31;;;;;;;12.25;10.02;;;12.00;99.90;;;;;;5002889;28;20507;-81
2022/09/30 09:12:57;;;;;;;12.57;10.20;;;12.40;99.90;;;;;;5004153;28;20403;-81
2022/09/30 09:15:37;;;;;;;9.48;8.50;;;12.60;99.90;;;;;;5003843;28;20041;-82
2022/09/30 09:18:24;;;;;;;8.98;7.57;;;12.70;99.90;;;;;;5016313;28;20037;-80
2022/09/30 09:20:58;;;;;;;9.23;7.70;;;12.70;99.90;;;;;;5003262;28;20388;-80
2022/09/30 09:23:27;;;;;;;8.75;7.43;;;12.70;99.90;;;;;;5002558;28;20061;-79
2022/09/30 09:25:54;;;;;;;8.75;7.38;;;12.80;99.90;;;;;;5016080;28;20061;-79
2022/09/30 09:28:28;;;;;;;6.55;5.85;;;12.80;99.90;;;;;;5023293;28;20041;-79
2022/09/30 09:30:57;;;;;;;7.05;6.35;;;12.80;99.90;;;;;;5007224;28;20407;-79
2022/09/30 09:33:34;;;;;;;6.72;6.03;;;12.90;99.90;;;;;;5033558;28;20034;-79
2022/09/30 09:36:14;;;;;;;6.00;5.30;;;13.00;99.90;;;;;;5001646;28;20042;-79
2022/09/30 09:39:18;;;;;;;5.07;4.38;;;13.10;99.90;;;;;;5002557;28;20068;-79
2022/09/30 09:42:25;;;;;;;5.18;4.68;;;13.20;99.90;;;;;;5020264;28;20041;-79
2022/09/30 09:45:07;;;;;;;4.90;3.92;;;13.20;99.90;;;;;;5003599;28;20052;-79
2022/09/30 09:47:33;;;;;;;4.18;3.75;;;13.20;99.90;;;;;;5022617;28;20041;-79
2022/09/30 09:50:03;;;;;;;3.88;3.40;;;13.40;99.90;;;;;;5021832;28;20065;-79
2022/09/30 09:52:41;;;;;;;4.03;3.50;;;13.40;99.90;;;;;;5004425;28;20124;-80
2022/09/30 09:55:10;;;;;;;3.65;3.25;;;13.60;99.90;;;;;;5022104;28;20041;-80
2022/09/30 09:57:36;;;;;;;3.55;3.25;;;13.70;99.90;;;;;;5019138;28;20041;-79
2022/09/30 10:03:11;;;;;;;3.50;3.17;;;14.30;99.90;;;;;;5021520;28;20048;-80
2022/09/30 10:05:40;;;;;;;4.03;3.63;;;14.90;99.90;;;;;;5005548;28;20064;-79
2022/09/30 10:08:19;;;;;;;4.03;3.03;;;15.50;99.90;;;;;;5017670;28;20567;-79
2022/09/30 10:10:53;;;;;;;3.40;2.90;;;15.90;99.90;;;;;;5019145;28;20041;-80
2022/09/30 10:13:45;;;;;;;4.10;2.90;;;16.00;99.90;;;;;;5006061;28;20030;-81
2022/09/30 10:16:31;;;;;;;3.55;2.95;;;15.90;99.90;;;;;;5020097;28;20045;-80
2022/09/30 10:18:58;;;;;;;2.95;2.47;;;15.70;99.90;;;;;;5009481;28;20040;-80
2022/09/30 10:21:26;;;;;;;3.58;2.60;;;15.70;99.90;;;;;;5005614;28;20040;-80
2022/09/30 10:23:51;;;;;;;3.72;2.78;;;15.70;99.90;;;;;;5050905;22;20040;-83
2022/09/30 10:26:20;;;;;;;2.08;1.88;;;15.70;99.90;;;;;;5027534;28;20037;-82
2022/09/30 10:28:58;;;;;;;3.17;2.10;;;15.80;99.90;;;;;;5030885;28;20039;-80
2022/09/30 10:31:43;;;;;;;3.33;2.50;;;15.80;99.90;;;;;;5063266;28;20096;-83
2022/09/30 10:34:30;;;;;;;2.97;2.35;;;15.90;99.90;;;;;;5022714;28;20048;-82
2022/09/30 10:37:00;;;;;;;2.40;2.20;;;16.00;99.90;;;;;;5034458;28;20115;-81
2022/09/30 10:39:28;;;;;;;2.28;2.03;;;16.10;99.90;;;;;;5017862;28;20129;-80
2022/09/30 10:42:08;;;;;;;2.35;1.80;;;16.10;99.90;;;;;;5018159;28;20042;-81
2022/09/30 10:44:44;;;;;;;2.38;2.03;;;16.20;99.90;;;;;;5032137;28;20041;-81
2022/09/30 10:47:14;;;;;;;2.80;2.20;;;16.10;99.90;;;;;;5033564;28;20092;-80
2022/09/30 10:49:55;;;;;;;2.92;2.30;;;16.20;99.90;;;;;;5017365;28;20068;-79
2022/09/30 10:52:23;;;;;;;3.83;2.60;;;16.60;99.90;;;;;;5018363;28;20414;-81
2022/09/30 10:54:55;;;;;;;2.58;2.13;;;16.90;99.90;;;;;;5014353;28;20034;-81
2022/09/30 10:57:24;;;;;;;2.53;1.95;;;17.10;99.90;;;;;;5035296;28;20403;-81
2022/09/30 10:59:56;;;;;;;2.45;2.08;;;17.10;99.90;;;;;;5019163;28;20041;-81
2022/09/30 11:02:43;;;;;;;3.53;2.60;;;17.20;99.90;;;;;;5019626;28;20098;-81
2022/09/30 11:05:23;;;;;;;2.22;2.00;;;17.30;99.90;;;;;;5019336;28;20403;-80
2022/09/30 11:08:18;;;;;;;2.88;2.28;;;17.50;99.90;;;;;;5011406;28;20041;-80
2022/09/30 11:10:50;;;;;;;3.20;2.53;;;17.50;99.90;;;;;;5023618;28;20503;-80
2022/09/30 11:13:37;;;;;;;3.83;2.65;;;17.20;99.90;;;;;;5017962;28;20051;-81
2022/09/30 11:16:28;;;;;;;2.85;2.30;;;17.00;99.90;;;;;;5013117;28;20090;-80
2022/09/30 11:19:23;;;;;;;3.25;2.60;;;16.90;99.90;;;;;;5011157;28;20041;-81
2022/09/30 11:22:03;;;;;;;3.30;3.00;;;17.20;99.90;;;;;;5013053;28;20080;-79
2022/09/30 11:24:53;;;;;;;3.97;3.28;;;17.50;99.90;;;;;;5040197;28;20041;-80
2022/09/30 11:27:50;;;;;;;3.90;3.28;;;17.80;99.90;;;;;;5035223;28;20045;-80
2022/09/30 11:30:22;;;;;;;3.10;2.80;;;18.00;99.90;;;;;;5013579;28;20504;-81
2022/09/30 11:33:17;;;;;;;3.60;2.97;;;18.00;99.90;;;;;;5018164;28;20033;-81
2022/09/30 11:35:50;;;;;;;3.78;3.17;;;18.10;99.90;;;;;;5036746;28;20480;-80
2022/09/30 11:38:49;;;;;;;3.63;3.20;;;18.00;99.90;;;;;;5052781;28;20097;-81
2022/09/30 11:42:07;;;;;;;3.55;3.15;;;17.80;99.90;;;;;;5020104;28;20087;-81
2022/09/30 11:44:40;;;;;;;4.32;3.80;;;17.40;99.90;;;;;;4960775;28;20064;-80
2022/09/30 11:47:18;;;;;;;;;;;17.20;99.90;;;;;;5009712;28;20103;-80
2022/09/30 11:50:14;;;;;;;4.50;3.72;;;17.00;99.90;;;;;;5016249;28;19917;-80
2022/09/30 11:53:12;;;;;;;3.97;3.58;;;17.00;99.90;;;;;;5020218;28;20076;-80
2022/09/30 11:56:09;;;;;;;4.47;3.33;;;17.00;99.90;;;;;;5016114;28;20109;-80
2022/09/30 11:58:44;;;;;;;2.85;2.55;;;17.30;99.90;;;;;;5016277;28;20046;-81
2022/09/30 12:01:22;;;;;;;2.70;2.28;;;17.60;99.90;;;;;;5035051;28;20107;-79
2022/09/30 12:03:59;;;;;;;2.60;2.10;;;17.60;99.90;;;;;;5021993;28;20045;-80
2022/09/30 12:06:34;;;;;;;3.20;2.42;;;17.60;99.90;;;;;;5032968;28;20049;-79
2022/09/30 12:09:17;;;;;;;3.13;2.53;;;17.60;99.90;;;;;;5001842;28;20105;-80
2022/09/30 12:12:10;;;;;;;2.92;2.50;;;17.40;99.90;;;;;;5029924;28;20038;-80
2022/09/30 12:14:41;;;;;;;2.15;1.95;;;17.30;99.90;;;;;;5011876;28;20049;-81
2022/09/30 12:17:17;;;;;;;2.08;1.85;;;17.40;99.90;;;;;;5021104;28;20445;-80
2022/09/30 12:19:49;;;;;;;2.30;2.10;;;17.60;99.90;;;;;;5016082;28;20392;-79
2022/09/30 12:22:26;;;;;;;1.70;1.60;;;17.90;99.90;;;;;;5034349;28;20049;-79
2022/09/30 12:24:53;;;;;;;2.20;1.75;;;17.90;99.90;;;;;;5037744;28;20052;-80
2022/09/30 12:27:37;;;;;;;2.38;2.08;;;17.80;99.90;;;;;;5025093;28;20413;-80
2022/09/30 12:30:17;;;;;;;2.30;2.10;;;17.70;99.90;;;;;;5021498;28;20502;-80
2022/09/30 12:32:52;;;;;;;3.38;2.70;;;17.70;99.90;;;;;;5022829;28;20052;-81
2022/09/30 12:35:46;;;;;;;3.40;2.80;;;17.40;99.90;;;;;;5021424;28;20038;-79
2022/09/30 12:38:37;;;;;;;3.25;2.92;;;17.40;99.90;;;;;;5020945;28;20042;-80
2022/09/30 12:41:10;;;;;;;3.33;2.97;;;17.40;99.90;;;;;;5033464;28;20495;-81
2022/09/30 12:43:46;;;;;;;3.17;2.88;;;17.40;99.90;;;;;;5041902;28;20114;-80
2022/09/30 12:46:27;;;;;;;2.90;2.58;;;17.50;99.90;;;;;;5024122;28;20045;-81
2022/09/30 12:49:00;;;;;;;3.10;2.40;;;17.50;99.90;;;;;;5026101;28;20468;-79
2022/09/30 12:51:33;;;;;;;2.70;2.35;;;17.60;99.90;;;;;;5041453;28;20045;-80
2022/09/30 12:54:18;;;;;;;3.25;2.95;;;17.80;99.90;;;;;;5025654;28;20437;-80
2022/09/30 12:56:47;;;;;;;3.97;3.17;;;17.90;99.90;;;;;;5024985;28;20056;-80
2022/09/30 12:59:14;;;;;;;3.63;3.28;;;17.90;99.90;;;;;;5020027;28;20120;-81
2022/09/30 13:01:41;;;;;;;2.97;2.67;;;18.10;99.90;;;;;;5031707;28;20046;-80
2022/09/30 13:04:07;;;;;;;2.72;2.45;;;18.00;99.90;;;;;;5024229;28;20041;-81
2022/09/30 13:06:45;;;;;;;3.42;3.03;;;17.90;92.30;;;;;;5039261;28;20080;-80
2022/09/30 13:09:10;;;;;;;3.45;3.10;;;17.50;99.90;;;;;;5031703;28;20076;-79
2022/09/30 13:11:40;;;;;;;3.85;3.17;;;17.20;99.90;;;;;;5016190;28;20079;-81
2022/09/30 13:14:28;;;;;;;3.50;2.70;;;17.10;98.60;;;;;;5035936;28;20037;-79
2022/09/30 13:17:21;;;;;;;2.58;2.38;;;17.00;99.90;;;;;;5019107;28;20040;-80
2022/09/30 13:19:52;;;;;;;2.30;2.10;;;17.10;99.90;;;;;;5035675;28;20037;-79
2022/09/30 13:22:22;;;;;;;2.90;2.30;;;16.90;94.70;;;;;;5034402;28;20095;-80
2022/09/30 13:25:03;;;;;;;2.78;2.47;;;16.70;99.00;;;;;;5019824;28;20045;-80
2022/09/30 13:27:42;;;;;;;2.90;2.60;;;16.60;99.90;;;;;;5021938;28;20045;-79
2022/09/30 13:30:14;;;;;;;2.95;2.00;;;16.40;99.90;;;;;;4994503;28;20102;-79